Coconut Grove, Florida
Current Conditions -  °F | °C
As of 2:53 AM on Friday 24 Oct 2014 (Local Time) from KMIA Reporting Station
Overcast Overcast  
Wind Chill: 78°   Ceiling: 2800
Heat Index: 80°   Visibility: 10mi
Dew Point: 69°   Wind: 12mph
Humidity: 74%   Direction: 40°NE
Pressure: 29.85"   Gusts: NA
Location:  25.7533°N, 80.2707°W
Report Text: KMIA 240653Z 04010KT 10SM BKN028 OVC034 26/21 A2985 RMK AO2 SLP107 T02560206
Loading
Personal Weather Stations






























Interactive Weather Map
Tropical Storm Tracking
New forecast layout! Learn more

10-Day Weather Forecast

Advertisements
Track Severe Weather on mobile